ADDS METAR Data INFO
IDs: Format: Raw Decoded Include TAF

Data at: 1148 UTC 23 Jun 2018

KHSA 230150Z 00000KT 7SM SKC 27/22 A2989
KHSA 230050Z 22005KT 7SM SKC 29/23 A2986
KHSA 222350Z 24005KT 7SM FEW050 31/23 A2985
KHSA 222250Z 25010G15KT 7SM SC T060 33/22 A2985
KHSA 222150Z 26010G15KT 7SM SC T050 33/21 A2986
KHSA 222050Z 26010G15KT 7SM SC T050 34/21 A2988
KHSA 221950Z 25010G15KT 7SM SC T050 34/21 A2989
KHSA 221850Z 25010G15KT 7SM SC T045 34/22 A2992
KHSA 221750Z 26009G15KT 10SM SC T039 SCT047 33/23 A2994
KHSA 221650Z 22009KT 10SM SC T034 SCT047 32/23 A2994
KHSA 221550Z 24011G15KT 10SM SC T030 SCT037 31/24 A2994
KHSA 221452Z 26009KT 240V300 10SM SC T028 30/24 A2994
KHSA 221350Z 24004KT 7SM SC T020 BKN031 28/25 A2993
KHSA 221250Z 23004KT 7SM SKC 27/25 A2994
KHSA 221150Z 00000KT 10SM SKC 24/24 A2993
KHSA 220150Z 00000KT 10SM SCT150 26/24 A2990
KHSA 220051Z 00000KT 10SM SCT150 26/24 A2990
KHSA 212353Z 00000KT 10SM SCT150 27/23 A2990